Time;durP1;ratioP1;P1;durP2;ratioP2;P2;SDS_P1;SDS_P2;PMS_P1;PMS_P2;Temp;Humidity;BMP_temperature;BMP_pressure;BME280_temperature;BME280_humidity;BME280_pressure;Samples;Min_cycle;Max_cycle;Signal;HPM_P1;HPM_P2
2022/08/24 00:00:47;;;;;;;;;;;19.40;99.90;;;;;;5062148;28;19920;-70
2022/08/24 00:03:13;;;;;;;;;;;19.30;99.90;;;;;;5056729;28;19928;-70
2022/08/24 00:05:39;;;;;;;;;;;19.30;99.90;;;;;;5053111;28;19931;-70
2022/08/24 00:08:04;;;;;;;;;;;19.30;99.90;;;;;;5065743;28;19925;-70
2022/08/24 00:10:30;;;;;;;;;;;19.20;99.90;;;;;;5067282;28;19924;-70
2022/08/24 00:12:56;;;;;;;;;;;19.20;99.90;;;;;;5068488;28;20289;-70
2022/08/24 00:15:22;;;;;;;;;;;19.20;99.90;;;;;;5061220;28;19928;-70
2022/08/24 00:17:48;;;;;;;;;;;19.20;99.90;;;;;;5049084;28;19920;-71
2022/08/24 00:20:13;;;;;;;;;;;19.10;99.90;;;;;;5067941;28;20429;-71
2022/08/24 00:22:39;;;;;;;;;;;19.10;99.90;;;;;;5044838;28;19932;-70
2022/08/24 00:25:06;;;;;;;;;;;19.00;99.90;;;;;;5063214;28;20023;-71
2022/08/24 00:27:32;;;;;;;;;;;19.00;99.90;;;;;;5067690;28;19921;-70
2022/08/24 00:29:57;;;;;;;;;;;18.90;99.90;;;;;;5066437;28;19932;-70
2022/08/24 00:32:23;;;;;;;;;;;18.90;99.90;;;;;;5052280;28;19924;-71
2022/08/24 00:34:48;;;;;;;;;;;18.90;99.90;;;;;;5066993;28;19920;-71
2022/08/24 00:37:14;;;;;;;;;;;18.80;99.90;;;;;;5067541;28;20285;-70
2022/08/24 00:39:39;;;;;;;;;;;18.80;99.90;;;;;;5050963;28;19992;-70
2022/08/24 00:42:05;;;;;;;;;;;18.70;99.90;;;;;;5060178;28;20460;-71
2022/08/24 00:44:31;;;;;;;;;;;18.70;99.90;;;;;;5067217;28;19925;-70
2022/08/24 00:47:12;;;;;;;;;;;18.60;99.90;;;;;;5070207;28;19933;-71
2022/08/24 00:49:40;;;;;;;;;;;18.60;99.90;;;;;;5067623;28;19931;-70
2022/08/24 00:52:28;;;;;;;;;;;18.60;99.90;;;;;;5069116;28;20553;-69
2022/08/24 00:54:59;;;;;;;;;;;18.50;99.90;;;;;;5065815;28;19932;-70
2022/08/24 00:57:27;;;;;;;;;;;18.50;99.90;;;;;;5055235;28;19927;-71
2022/08/24 00:59:57;;;;;;;;;;;18.50;99.90;;;;;;5065128;28;19921;-70
2022/08/24 01:02:25;;;;;;;;;;;18.50;99.90;;;;;;5065716;28;19924;-70
2022/08/24 01:04:52;;;;;;;;;;;18.40;99.90;;;;;;5067362;28;19977;-70
2022/08/24 01:07:19;;;;;;;;;;;18.40;99.90;;;;;;5067815;28;19943;-70
2022/08/24 01:09:45;;;;;;;;;;;18.40;99.90;;;;;;5067961;28;20273;-70
2022/08/24 01:12:10;;;;;;;;;;;18.30;99.90;;;;;;5047375;28;19925;-71
2022/08/24 01:14:36;;;;;;;;;;;18.30;99.90;;;;;;5062530;28;19981;-70
2022/08/24 01:19:49;;;;;;;;;;;18.30;99.90;;;;;;5066175;28;19929;-70
2022/08/24 01:22:14;;;;;;;;;;;18.20;99.90;;;;;;5058614;28;20420;-70
2022/08/24 01:24:40;;;;;;;;;;;18.20;99.90;;;;;;5064275;28;19924;-70
2022/08/24 01:27:08;;;;;;;;;;;18.20;99.90;;;;;;5049299;28;20286;-70
2022/08/24 01:29:34;;;;;;;;;;;18.10;99.90;;;;;;5065768;28;19920;-70
2022/08/24 01:31:59;;;;;;;;;;;18.10;99.90;;;;;;5039570;28;19928;-70
2022/08/24 01:34:25;;;;;;;;;;;18.10;99.90;;;;;;5065512;28;20373;-69
2022/08/24 01:36:54;;;;;;;;;;;18.10;99.90;;;;;;5066630;28;19928;-70
2022/08/24 01:39:25;;;;;;;;;;;18.10;99.90;;;;;;5048058;28;19921;-69
2022/08/24 01:41:50;;;;;;;;;;;17.90;99.90;;;;;;5067632;28;19932;-70
2022/08/24 01:44:16;;;;;;;;;;;17.90;99.90;;;;;;5065261;28;20308;-70
2022/08/24 01:46:43;;;;;;;;;;;17.90;99.90;;;;;;5068994;28;19974;-71
2022/08/24 01:49:09;;;;;;;;;;;17.80;99.90;;;;;;5068312;28;20451;-71
2022/08/24 01:51:34;;;;;;;;;;;17.80;99.90;;;;;;5068336;28;19943;-71
2022/08/24 01:54:01;;;;;;;;;;;17.80;99.90;;;;;;5051442;28;19924;-66
2022/08/24 01:56:27;;;;;;;;;;;17.70;99.90;;;;;;5064945;28;19989;-66
2022/08/24 01:58:53;;;;;;;;;;;17.70;99.90;;;;;;5069233;28;19921;-65
2022/08/24 02:01:18;;;;;;;;;;;17.70;99.90;;;;;;5072597;28;20385;-66
2022/08/24 02:03:44;;;;;;;;;;;17.60;99.90;;;;;;5066288;28;19927;-66
2022/08/24 02:06:10;;;;;;;;;;;17.60;99.90;;;;;;5087511;28;20011;-66
2022/08/24 02:08:35;;;;;;;;;;;17.50;99.90;;;;;;5067642;28;19924;-65
2022/08/24 02:11:02;;;;;;;;;;;17.50;99.90;;;;;;5055419;28;19924;-66
2022/08/24 02:13:28;;;;;;;;;;;17.50;99.90;;;;;;5071504;28;20269;-66
2022/08/24 02:15:53;;;;;;;;;;;17.40;99.90;;;;;;5065603;28;19920;-65
2022/08/24 02:18:19;;;;;;;;;;;17.40;99.90;;;;;;5061611;28;19941;-66
2022/08/24 02:20:44;;;;;;;;;;;17.30;99.90;;;;;;5070764;28;19951;-65
2022/08/24 02:23:10;;;;;;;;;;;17.30;99.90;;;;;;5065213;28;19932;-65
2022/08/24 02:25:35;;;;;;;;;;;17.20;99.90;;;;;;5072619;28;20251;-66
2022/08/24 02:28:01;;;;;;;;;;;17.20;99.90;;;;;;5070427;28;19928;-66
2022/08/24 02:30:27;;;;;;;;;;;17.20;99.90;;;;;;5070055;28;20408;-66
2022/08/24 02:32:53;;;;;;;;;;;17.20;99.90;;;;;;5069074;28;19928;-66
2022/08/24 02:35:18;;;;;;;;;;;17.10;99.90;;;;;;5066288;28;19931;-65
2022/08/24 02:37:44;;;;;;;;;;;17.20;99.90;;;;;;5069444;28;19924;-66
2022/08/24 02:40:10;;;;;;;;;;;17.20;99.90;;;;;;5070594;28;20236;-66
2022/08/24 02:42:35;;;;;;;;;;;17.20;99.90;;;;;;5067908;28;19921;-66
2022/08/24 02:45:01;;;;;;;;;;;17.20;99.90;;;;;;5065085;28;19930;-66
2022/08/24 02:47:27;;;;;;;;;;;17.20;99.90;;;;;;5062182;28;20019;-66
2022/08/24 02:49:52;;;;;;;;;;;17.20;99.90;;;;;;5071958;28;19932;-65
2022/08/24 02:54:45;;;;;;;;;;;17.10;99.90;;;;;;5064268;28;20281;-66
2022/08/24 02:57:11;;;;;;;;;;;17.10;99.90;;;;;;5069450;28;19935;-67
2022/08/24 02:59:36;;;;;;;;;;;17.10;99.90;;;;;;5041634;28;19932;-66
2022/08/24 03:02:02;;;;;;;;;;;17.10;99.90;;;;;;5071169;28;19921;-66
2022/08/24 03:04:28;;;;;;;;;;;17.00;99.90;;;;;;5025092;28;20051;-66
2022/08/24 03:06:54;;;;;;;;;;;17.00;99.90;;;;;;5068011;28;20003;-66
2022/08/24 03:09:19;;;;;;;;;;;17.00;99.90;;;;;;5054510;28;20381;-66
2022/08/24 03:11:44;;;;;;;;;;;17.10;99.90;;;;;;5071970;28;19924;-67
2022/08/24 03:14:10;;;;;;;;;;;17.00;99.90;;;;;;5068024;28;19933;-66
2022/08/24 03:16:37;;;;;;;;;;;17.00;99.90;;;;;;5046627;28;19924;-66
2022/08/24 03:19:03;;;;;;;;;;;17.00;99.90;;;;;;5052449;28;20015;-66
2022/08/24 03:21:28;;;;;;;;;;;17.00;99.90;;;;;;5052016;28;20010;-66
2022/08/24 03:23:54;;;;;;;;;;;17.00;99.90;;;;;;5050752;28;19931;-66
2022/08/24 03:26:20;;;;;;;;;;;16.90;99.90;;;;;;5050429;28;19931;-66
2022/08/24 03:28:45;;;;;;;;;;;16.90;99.90;;;;;;5069169;28;19925;-66
2022/08/24 03:31:11;;;;;;;;;;;16.90;99.90;;;;;;5054190;28;20357;-66
2022/08/24 03:33:36;;;;;;;;;;;16.90;99.90;;;;;;5070084;28;19921;-66
2022/08/24 03:36:02;;;;;;;;;;;16.90;99.90;;;;;;5039791;28;19924;-67
2022/08/24 03:38:28;;;;;;;;;;;16.80;99.90;;;;;;5050318;28;19934;-66
2022/08/24 03:40:54;;;;;;;;;;;16.80;99.90;;;;;;5035310;28;20431;-67
2022/08/24 03:46:07;;;;;;;;;;;16.80;99.90;;;;;;5051123;28;19924;-67
2022/08/24 03:48:33;;;;;;;;;;;16.80;99.90;;;;;;5049894;28;19928;-66
2022/08/24 03:50:58;;;;;;;;;;;16.80;99.90;;;;;;5068633;28;19974;-66
2022/08/24 03:53:24;;;;;;;;;;;16.80;99.90;;;;;;5051555;28;19920;-66
2022/08/24 03:55:49;;;;;;;;;;;16.70;99.90;;;;;;5047502;28;19931;-66
2022/08/24 03:58:15;;;;;;;;;;;16.80;99.90;;;;;;5051815;28;19920;-66
2022/08/24 04:00:41;;;;;;;;;;;16.70;99.90;;;;;;5049999;28;19931;-66
2022/08/24 04:03:10;;;;;;;;;;;16.70;99.90;;;;;;5069125;28;20378;-66
2022/08/24 04:05:36;;;;;;;;;;;16.70;99.90;;;;;;5061107;28;20368;-66
2022/08/24 04:08:02;;;;;;;;;;;16.70;99.90;;;;;;5047563;28;19924;-66
2022/08/24 04:10:28;;;;;;;;;;;16.70;99.90;;;;;;5069796;28;19935;-66
2022/08/24 04:12:53;;;;;;;;;;;16.60;99.90;;;;;;5067577;28;20486;-66
2022/08/24 04:15:19;;;;;;;;;;;16.60;99.90;;;;;;5051441;28;20254;-67
2022/08/24 04:17:44;;;;;;;;;;;16.60;99.90;;;;;;5069724;28;19927;-66
2022/08/24 04:20:10;;;;;;;;;;;16.60;99.90;;;;;;5069378;28;19939;-66
2022/08/24 04:22:35;;;;;;;;;;;16.60;99.90;;;;;;5051476;28;20322;-66
2022/08/24 04:25:01;;;;;;;;;;;16.60;99.90;;;;;;5046537;28;19944;-66
2022/08/24 04:27:27;;;;;;;;;;;16.60;99.90;;;;;;5065129;28;19932;-66
2022/08/24 04:29:52;;;;;;;;;;;16.60;99.90;;;;;;5047109;28;19951;-66
2022/08/24 04:32:18;;;;;;;;;;;16.60;99.90;;;;;;5046753;28;19920;-66
2022/08/24 04:34:43;;;;;;;;;;;16.60;99.90;;;;;;5072088;28;19920;-67
2022/08/24 04:37:09;;;;;;;;;;;16.60;99.90;;;;;;5059730;28;19920;-67
2022/08/24 04:39:35;;;;;;;;;;;16.60;99.90;;;;;;5036784;28;20572;-67
2022/08/24 04:42:00;;;;;;;;;;;16.60;99.90;;;;;;5054534;28;19932;-67
2022/08/24 04:44:26;;;;;;;;;;;16.60;99.90;;;;;;5079985;28;19925;-67
2022/08/24 04:46:51;;;;;;;;;;;16.60;99.90;;;;;;5083346;28;20438;-66
2022/08/24 04:49:17;;;;;;;;;;;16.60;99.90;;;;;;5053610;28;19924;-67
2022/08/24 04:51:42;;;;;;;;;;;16.60;99.90;;;;;;5070631;28;19921;-67
2022/08/24 04:54:08;;;;;;;;;;;16.70;99.90;;;;;;5048600;28;21061;-67
2022/08/24 04:56:33;;;;;;;;;;;16.70;99.90;;;;;;5049110;28;19931;-67
2022/08/24 04:58:59;;;;;;;;;;;16.70;99.90;;;;;;5048773;28;20046;-66
2022/08/24 05:01:27;;;;;;;;;;;16.80;99.90;;;;;;5049965;28;20130;-67
2022/08/24 05:03:53;;;;;;;;;;;16.80;99.90;;;;;;5034795;28;19968;-66
2022/08/24 05:06:19;;;;;;;;;;;16.90;99.90;;;;;;5043078;28;19924;-67
2022/08/24 05:08:46;;;;;;;;;;;16.90;99.90;;;;;;5046549;28;19933;-67
2022/08/24 05:11:12;;;;;;;;;;;17.00;99.90;;;;;;5051746;28;19920;-67
2022/08/24 05:13:38;;;;;;;;;;;17.00;99.90;;;;;;5049595;28;19921;-67
2022/08/24 05:16:05;;;;;;;;;;;17.00;99.90;;;;;;5038848;28;19948;-67
2022/08/24 05:18:32;;;;;;;;;;;17.10;99.90;;;;;;5073600;28;19927;-67
2022/08/24 05:20:58;;;;;;;;;;;17.10;99.90;;;;;;5056698;28;19939;-66
2022/08/24 05:23:23;;;;;;;;;;;17.10;99.90;;;;;;5046398;28;19920;-67
2022/08/24 05:25:49;;;;;;;;;;;17.10;99.90;;;;;;5052714;28;19924;-67
2022/08/24 05:28:15;;;;;;;;;;;17.10;99.90;;;;;;5049535;28;20019;-67
2022/08/24 05:30:40;;;;;;;;;;;17.20;99.90;;;;;;5052243;28;19924;-67
2022/08/24 05:33:06;;;;;;;;;;;17.20;99.90;;;;;;5041268;28;19920;-67
2022/08/24 05:35:36;;;;;;;;;;;17.30;99.90;;;;;;5055773;28;20007;-67
2022/08/24 05:38:01;;;;;;;;;;;17.40;99.90;;;;;;5045537;28;19931;-67
2022/08/24 05:40:26;;;;;;;;;;;17.40;99.90;;;;;;5069234;28;19929;-66
2022/08/24 05:42:52;;;;;;;;;;;17.50;99.90;;;;;;5067873;28;20675;-67
2022/08/24 05:45:17;;;;;;;;;;;17.60;99.90;;;;;;5041240;28;19927;-67
2022/08/24 05:47:44;;;;;;;;;;;17.70;99.90;;;;;;5051596;28;19925;-67
2022/08/24 05:50:10;;;;;;;;;;;18.10;99.90;;;;;;5073542;28;19920;-67
2022/08/24 05:52:35;;;;;;;;;;;19.20;99.90;;;;;;5066095;28;19932;-67
2022/08/24 05:55:01;;;;;;;;;;;20.40;99.90;;;;;;5064686;28;19947;-67
2022/08/24 05:57:30;;;;;;;;;;;21.50;99.90;;;;;;5052189;28;20015;-67
2022/08/24 05:59:56;;;;;;;;;;;22.40;99.90;;;;;;5054150;28;19920;-67
2022/08/24 06:02:22;;;;;;;;;;;23.20;99.90;;;;;;5068659;28;19951;-67
2022/08/24 06:04:48;;;;;;;;;;;24.30;99.90;;;;;;5056416;28;20007;-67
2022/08/24 06:07:13;;;;;;;;;;;24.70;99.90;;;;;;5049010;28;20038;-67
2022/08/24 06:09:39;;;;;;;;;;;25.40;99.90;;;;;;5042832;28;19925;-67
2022/08/24 06:12:05;;;;;;;;;;;25.90;99.90;;;;;;5073802;28;19935;-67
2022/08/24 06:14:33;;;;;;;;;;;26.40;99.20;;;;;;5048373;28;19946;-67
2022/08/24 06:16:58;;;;;;;;;;;26.80;98.10;;;;;;5040839;28;20055;-67
2022/08/24 06:19:25;;;;;;;;;;;27.40;98.00;;;;;;5055367;28;20030;-67
2022/08/24 06:21:53;;;;;;;;;;;27.90;96.20;;;;;;5070842;28;20309;-67
2022/08/24 06:27:19;;;;;;;;;;;;;;;;;;5069185;28;19928;-67
2022/08/24 06:27:20;;;;;;;;;;;28.70;94.50;;;;;;5044569;28;19921;-67
2022/08/24 06:29:46;;;;;;;;;;;29.20;94.10;;;;;;5044914;28;20014;-69
2022/08/24 06:32:11;;;;;;;;;;;;;;;;;;5051475;28;20019;-69
2022/08/24 06:34:38;;;;;;;;;;;29.90;92.50;;;;;;5051039;28;19931;-69
2022/08/24 06:37:04;;;;;;;;;;;;;;;;;;5054773;28;20338;-69
2022/08/24 06:39:29;;;;;;;;;;;30.90;95.30;;;;;;5027536;28;19967;-69
2022/08/24 06:41:55;;;;;;;;;;;31.00;94.00;;;;;;5030569;28;19929;-69
2022/08/24 06:44:20;;;;;;;;;;;31.00;92.20;;;;;;5054843;28;19931;-70
2022/08/24 06:46:46;;;;;;;;;;;31.10;93.40;;;;;;5047799;28;19924;-70
2022/08/24 06:49:12;;;;;;;;;;;31.50;90.70;;;;;;5049769;28;19978;-70
2022/08/24 06:51:37;;;;;;;;;;;31.70;90.40;;;;;;5046414;28;20375;-70
2022/08/24 06:54:03;;;;;;;;;;;32.00;87.60;;;;;;5052722;28;19920;-70
2022/08/24 06:56:29;;;;;;;;;;;32.20;87.10;;;;;;5050599;28;20051;-70
2022/08/24 06:58:54;;;;;;;;;;;32.80;87.50;;;;;;5054616;28;19989;-70
2022/08/24 07:01:21;;;;;;;;;;;33.00;87.50;;;;;;5053639;28;19971;-71
2022/08/24 07:03:47;;;;;;;;;;;33.30;86.10;;;;;;5069074;28;20325;-70
2022/08/24 07:06:13;;;;;;;;;;;33.50;86.00;;;;;;5053690;28;20012;-70
2022/08/24 07:08:40;;;;;;;;;;;33.90;84.50;;;;;;5069944;28;19982;-70
2022/08/24 07:11:06;;;;;;;;;;;34.30;84.20;;;;;;5051399;28;19959;-70
2022/08/24 07:13:33;;;;;;;;;;;34.70;83.80;;;;;;5052889;28;20007;-70
2022/08/24 07:15:59;;;;;;;;;;;34.70;83.10;;;;;;5050965;28;20293;-70
2022/08/24 07:18:25;;;;;;;;;;;34.90;81.90;;;;;;5052843;28;19925;-70
2022/08/24 07:20:50;;;;;;;;;;;35.10;84.60;;;;;;5050532;28;19978;-70
2022/08/24 07:23:16;;;;;;;;;;;35.30;81.90;;;;;;5051627;28;19921;-70
2022/08/24 07:25:42;;;;;;;;;;;35.80;86.50;;;;;;5069971;28;19960;-71
2022/08/24 07:28:08;;;;;;;;;;;36.00;81.40;;;;;;5052490;28;20618;-71
2022/08/24 07:30:34;;;;;;;;;;;36.20;80.50;;;;;;5052694;28;19977;-70
2022/08/24 07:33:00;;;;;;;;;;;;;;;;;;5049570;28;19928;-71
2022/08/24 07:35:27;;;;;;;;;;;36.50;79.00;;;;;;5051150;28;20297;-70
2022/08/24 07:37:54;;;;;;;;;;;36.70;78.40;;;;;;5051169;28;19993;-70
2022/08/24 07:40:20;;;;;;;;;;;36.70;79.00;;;;;;5052926;28;20277;-70
2022/08/24 07:42:49;;;;;;;;;;;36.80;77.90;;;;;;5065075;28;19925;-70
2022/08/24 07:45:14;;;;;;;;;;;36.90;77.50;;;;;;5048242;28;19959;-70
2022/08/24 07:47:40;;;;;;;;;;;36.80;76.30;;;;;;5052038;28;19966;-70
2022/08/24 07:50:05;;;;;;;;;;;36.70;76.00;;;;;;5031428;28;19929;-70
2022/08/24 07:52:31;;;;;;;;;;;36.50;71.40;;;;;;5048148;28;20434;-71
2022/08/24 07:54:57;;;;;;;;;;;35.80;76.90;;;;;;5049151;28;19928;-73
2022/08/24 07:57:22;;;;;;;;;;;34.70;74.60;;;;;;5035329;28;20436;-73
2022/08/24 07:59:48;;;;;;;;;;;33.10;74.80;;;;;;5051409;28;19928;-72
2022/08/24 08:02:13;;;;;;;;;;;31.00;77.90;;;;;;5034636;28;19928;-72
2022/08/24 08:04:39;;;;;;;;;;;30.40;80.90;;;;;;5051050;28;20259;-72
2022/08/24 08:07:06;;;;;;;;;;;29.20;81.20;;;;;;5043449;28;19964;-72
2022/08/24 08:09:32;;;;;;;;;;;29.00;83.30;;;;;;5064538;28;19929;-72
2022/08/24 08:11:57;;;;;;;;;;;29.00;85.30;;;;;;5052894;28;19970;-72
2022/08/24 08:14:23;;;;;;;;;;;28.80;85.90;;;;;;5052058;28;19921;-72
2022/08/24 08:16:49;;;;;;;;;;;28.50;86.30;;;;;;5052357;28;19920;-73
2022/08/24 08:19:15;;;;;;;;;;;28.40;87.10;;;;;;5050939;28;19929;-72
2022/08/24 08:24:25;;;;;;;;;;;27.80;87.50;;;;;;5042457;28;20002;-71
2022/08/24 08:26:51;;;;;;;;;;;27.80;89.40;;;;;;5053920;28;20007;-71
2022/08/24 08:29:18;;;;;;;;;;;27.70;89.50;;;;;;5053752;28;19928;-70
2022/08/24 08:31:44;;;;;;;;;;;27.50;89.60;;;;;;5070255;28;19920;-70
2022/08/24 08:34:10;;;;;;;;;;;27.40;90.70;;;;;;5070671;28;19920;-69
2022/08/24 08:36:38;;;;;;;;;;;27.40;89.80;;;;;;5059432;28;19931;-68
2022/08/24 08:39:04;;;;;;;;;;;27.40;90.50;;;;;;5059184;28;20384;-70
2022/08/24 08:41:48;;;;;;;;;;;27.30;90.60;;;;;;5053631;28;19927;-70
2022/08/24 08:44:14;;;;;;;;;;;27.20;90.20;;;;;;5051720;28;19920;-70
2022/08/24 08:46:58;;;;;;;;;;;26.90;90.70;;;;;;5049553;28;20011;-70
2022/08/24 08:49:33;;;;;;;;;;;26.60;91.20;;;;;;5070005;28;20336;-71
2022/08/24 08:52:26;;;;;;;;;;;26.80;91.70;;;;;;5034083;28;19921;-70
2022/08/24 08:54:57;;;;;;;;;;;26.80;91.60;;;;;;5084838;28;19931;-70
2022/08/24 08:57:26;;;;;;;;;;;26.70;91.10;;;;;;5053380;28;20377;-70
2022/08/24 09:00:04;;;;;;;;;;;26.80;91.70;;;;;;5052600;28;19925;-70
2022/08/24 09:02:41;;;;;;;;;;;26.90;91.30;;;;;;5070184;28;19943;-70
2022/08/24 09:05:13;;;;;;;;;;;27.00;91.50;;;;;;5101933;28;19921;-70
2022/08/24 09:07:48;;;;;;;;;;;27.20;91.40;;;;;;5071971;28;20040;-70
2022/08/24 09:10:20;;;;;;;;;;;27.20;91.30;;;;;;5053606;28;19920;-70
2022/08/24 09:12:52;;;;;;;;;;;27.20;91.70;;;;;;5069575;28;20366;-70
2022/08/24 09:15:29;;;;;;;;;;;27.30;91.20;;;;;;5052682;28;19927;-70
2022/08/24 09:18:15;;;;;;;;;;;27.20;90.50;;;;;;5053080;28;19921;-70
2022/08/24 09:21:00;;;;;;;;;;;27.30;91.10;;;;;;5052790;28;19920;-70
2022/08/24 09:23:28;;;;;;;;;;;27.40;91.50;;;;;;5053011;28;20339;-70
2022/08/24 09:26:17;;;;;;;;;;;27.60;91.20;;;;;;5052531;28;20380;-70
2022/08/24 09:28:44;;;;;;;;;;;27.70;91.10;;;;;;5049584;28;19960;-69
2022/08/24 09:31:15;;;;;;;;;;;27.80;91.10;;;;;;5050201;28;19971;-69
2022/08/24 09:34:00;;;;;;;;;;;27.90;90.10;;;;;;5051583;28;19929;-69
2022/08/24 09:36:46;;;;;;;;;;;27.80;90.70;;;;;;5050099;28;19928;-69
2022/08/24 09:39:20;;;;;;;;;;;27.80;90.50;;;;;;5050236;28;20096;-69
2022/08/24 09:41:47;;;;;;;;;;;28.00;90.40;;;;;;5050300;28;20281;-69
2022/08/24 09:44:31;;;;;;;;;;;28.00;90.30;;;;;;5050132;28;20015;-69
2022/08/24 09:46:57;;;;;;;;;;;28.00;90.00;;;;;;5050029;28;20382;-69
2022/08/24 09:49:32;;;;;;;;;;;28.10;90.50;;;;;;5050125;28;19931;-69
2022/08/24 09:52:12;;;;;;;;;;;28.30;90.90;;;;;;5051362;28;19921;-69
2022/08/24 09:54:56;;;;;;;;;;;28.40;90.40;;;;;;5046610;28;20044;-69
2022/08/24 09:57:42;;;;;;;;;;;28.30;89.60;;;;;;5031464;28;20020;-69
2022/08/24 10:00:15;;;;;;;;;;;28.30;89.10;;;;;;5030116;28;19921;-69
2022/08/24 10:02:51;;;;;;;;;;;28.30;88.90;;;;;;5029916;28;20255;-70
2022/08/24 10:05:28;;;;;;;;;;;28.30;90.20;;;;;;5029964;28;19928;-69
2022/08/24 10:08:19;;;;;;;;;;;28.50;90.10;;;;;;5030275;28;20326;-70
2022/08/24 10:10:45;;;;;;;;;;;28.60;89.90;;;;;;5063490;28;19964;-69
2022/08/24 10:13:38;;;;;;;;;;;28.60;89.80;;;;;;5029870;28;19953;-70
2022/08/24 10:16:24;;;;;;;;;;;28.70;90.10;;;;;;5031302;28;20440;-69
2022/08/24 10:19:01;;;;;;;;;;;28.80;90.20;;;;;;5031209;28;19921;-69
2022/08/24 10:21:27;;;;;;;;;;;28.90;89.60;;;;;;5032680;28;20393;-69
2022/08/24 10:24:01;;;;;;;;;;;28.90;88.50;;;;;;5033661;28;20027;-69
2022/08/24 10:26:33;;;;;;;;;;;28.70;87.50;;;;;;5066761;28;20386;-69
2022/08/24 10:29:10;;;;;;;;;;;28.60;87.20;;;;;;5033530;28;19933;-70
2022/08/24 10:31:58;;;;;;;;;;;28.80;88.50;;;;;;5066678;28;20012;-70
2022/08/24 10:34:24;;;;;;;;;;;28.70;86.70;;;;;;5034604;28;19925;-70
2022/08/24 10:37:09;;;;;;;;;;;28.80;88.60;;;;;;5033498;28;19932;-70
2022/08/24 10:40:02;;;;;;;;;;;28.90;88.80;;;;;;5034631;28;20271;-69
2022/08/24 10:45:45;;;;;;;;;;;29.00;89.20;;;;;;5066556;28;19968;-69
2022/08/24 10:48:36;;;;;;;;;;;29.30;88.90;;;;;;5033130;28;20330;-69
2022/08/24 10:51:20;;;;;;;;;;;29.30;87.10;;;;;;5034341;28;20111;-69
2022/08/24 10:53:50;;;;;;;;;;;29.30;89.60;;;;;;5044199;28;19927;-69
2022/08/24 10:56:18;;;;;;;;;;;29.30;87.90;;;;;;5054250;28;19932;-70
2022/08/24 10:58:55;;;;;;;;;;;29.40;87.80;;;;;;5053945;28;20015;-69
2022/08/24 11:01:32;;;;;;;;;;;29.50;87.60;;;;;;5069439;28;19925;-69
2022/08/24 11:04:04;;;;;;;;;;;29.40;86.90;;;;;;5052532;28;19971;-69
2022/08/24 11:06:40;;;;;;;;;;;29.50;87.30;;;;;;5052601;28;19970;-69
2022/08/24 11:09:10;;;;;;;;;;;29.60;87.60;;;;;;5053131;28;19929;-69
2022/08/24 11:11:40;;;;;;;;;;;29.60;86.10;;;;;;5052485;28;19921;-69
2022/08/24 11:14:08;;;;;;;;;;;29.70;87.50;;;;;;5052587;28;19920;-69
2022/08/24 11:16:39;;;;;;;;;;;29.90;87.30;;;;;;5051435;28;19932;-69
2022/08/24 11:19:09;;;;;;;;;;;29.90;85.90;;;;;;5051171;28;19945;-69
2022/08/24 11:21:52;;;;;;;;;;;29.80;85.30;;;;;;5051924;28;19920;-69
2022/08/24 11:24:17;;;;;;;;;;;29.60;83.90;;;;;;5051650;28;19967;-69
2022/08/24 11:26:49;;;;;;;;;;;29.50;86.50;;;;;;5084841;28;19967;-70
2022/08/24 11:29:14;;;;;;;;;;;29.50;87.40;;;;;;5084788;28;19925;-69
2022/08/24 11:31:40;;;;;;;;;;;29.60;86.70;;;;;;5052330;28;20293;-69
2022/08/24 11:34:30;;;;;;;;;;;29.50;84.50;;;;;;5052499;28;20021;-69
2022/08/24 11:36:55;;;;;;;;;;;29.60;87.70;;;;;;5051925;28;19932;-69
2022/08/24 11:39:23;;;;;;;;;;;29.80;87.10;;;;;;5053342;28;20255;-69
2022/08/24 11:41:51;;;;;;;;;;;30.00;86.40;;;;;;5085751;28;20003;-70
2022/08/24 11:44:26;;;;;;;;;;;29.80;82.30;;;;;;5053230;28;19932;-69
2022/08/24 11:46:56;;;;;;;;;;;29.80;84.40;;;;;;5051673;28;19924;-70
2022/08/24 11:49:25;;;;;;;;;;;30.00;85.20;;;;;;5085301;28;19937;-69
2022/08/24 11:52:02;;;;;;;;;;;30.00;82.10;;;;;;5052901;28;19932;-69
2022/08/24 11:54:36;;;;;;;;;;;30.10;84.70;;;;;;5051461;28;19972;-70
2022/08/24 11:57:28;;;;;;;;;;;30.30;86.00;;;;;;5053072;28;19933;-69
2022/08/24 12:00:02;;;;;;;;;;;30.50;85.60;;;;;;5068283;28;19925;-70
2022/08/24 12:02:32;;;;;;;;;;;30.40;84.20;;;;;;5051505;28;19924;-70
2022/08/24 12:05:19;;;;;;;;;;;30.30;83.80;;;;;;5052674;28;19921;-70
2022/08/24 12:07:59;;;;;;;;;;;30.20;83.70;;;;;;5085268;28;19925;-69
2022/08/24 12:10:29;;;;;;;;;;;30.10;86.60;;;;;;5051203;28;19921;-69
2022/08/24 12:13:02;;;;;;;;;;;30.00;82.40;;;;;;5084795;28;19932;-69
2022/08/24 12:15:48;;;;;;;;;;;30.00;82.30;;;;;;5052601;28;19960;-70
2022/08/24 12:18:20;;;;;;;;;;;30.00;82.60;;;;;;5050841;28;20293;-70
2022/08/24 12:20:48;;;;;;;;;;;30.10;85.40;;;;;;5084862;28;20417;-70
2022/08/24 12:23:24;;;;;;;;;;;30.10;81.10;;;;;;5034571;28;19921;-70
2022/08/24 12:26:03;;;;;;;;;;;30.20;85.60;;;;;;5067654;28;19972;-70
2022/08/24 12:28:31;;;;;;;;;;;30.20;81.00;;;;;;5052390;28;20641;-70
2022/08/24 12:31:01;;;;;;;;;;;29.70;82.30;;;;;;5052261;28;20034;-69
2022/08/24 12:33:30;;;;;;;;;;;29.70;84.20;;;;;;5051179;28;19921;-70
2022/08/24 12:35:59;;;;;;;;;;;29.60;86.10;;;;;;5050812;28;19960;-70
2022/08/24 12:38:32;;;;;;;;;;;29.50;86.70;;;;;;5050836;28;20408;-69
2022/08/24 12:41:00;;;;;;;;;;;29.30;84.70;;;;;;5052249;28;19928;-70
2022/08/24 12:43:38;;;;;;;;;;;29.20;87.00;;;;;;5066773;28;20042;-69
2022/08/24 12:46:05;;;;;;;;;;;29.20;87.90;;;;;;5050611;28;19929;-69
2022/08/24 12:48:49;;;;;;;;;;;29.20;87.90;;;;;;5052053;28;20374;-69
2022/08/24 12:51:22;;;;;;;;;;;29.20;87.80;;;;;;5050580;28;19921;-70
2022/08/24 12:54:00;;;;;;;;;;;29.10;89.00;;;;;;5063716;28;19950;-69
2022/08/24 12:56:44;;;;;;;;;;;29.10;89.30;;;;;;5054154;28;20368;-70
2022/08/24 12:59:28;;;;;;;;;;;29.10;88.70;;;;;;5087661;28;20342;-70
2022/08/24 13:02:02;;;;;;;;;;;29.10;89.10;;;;;;5071971;28;20015;-69
2022/08/24 13:04:36;;;;;;;;;;;29.20;90.00;;;;;;5087372;28;19921;-70
2022/08/24 13:07:04;;;;;;;;;;;29.50;89.90;;;;;;5071832;28;20035;-70
2022/08/24 13:09:34;;;;;;;;;;;29.80;88.80;;;;;;5071990;28;20039;-70
2022/08/24 13:12:18;;;;;;;;;;;30.00;83.80;;;;;;5071529;28;20370;-70
2022/08/24 13:14:48;;;;;;;;;;;30.20;84.80;;;;;;5087310;28;19924;-70
2022/08/24 13:17:16;;;;;;;;;;;30.30;81.20;;;;;;5053733;28;20010;-70
2022/08/24 13:19:44;;;;;;;;;;;30.50;83.10;;;;;;5071837;28;19928;-70
2022/08/24 13:22:09;;;;;;;;;;;30.60;85.20;;;;;;5087087;28;20394;-70
2022/08/24 13:24:35;;;;;;;;;;;30.80;85.20;;;;;;5053916;28;20021;-70
2022/08/24 13:27:13;;;;;;;;;;;30.80;81.40;;;;;;5053299;28;19924;-70
2022/08/24 13:29:40;;;;;;;;;;;30.90;83.40;;;;;;5086915;28;20381;-70
2022/08/24 13:32:06;;;;;;;;;;;31.00;84.40;;;;;;5087038;28;19932;-70
2022/08/24 13:34:38;;;;;;;;;;;31.20;83.10;;;;;;5071592;28;19920;-69
2022/08/24 13:37:13;;;;;;;;;;;31.50;84.50;;;;;;5086948;28;20049;-70
2022/08/24 13:39:47;;;;;;;;;;;31.60;83.80;;;;;;5071591;28;19928;-70
2022/08/24 13:42:13;;;;;;;;;;;31.80;76.70;;;;;;5053386;28;19973;-70
2022/08/24 13:44:57;;;;;;;;;;;31.80;81.70;;;;;;5071687;28;20015;-70
2022/08/24 13:47:27;;;;;;;;;;;31.90;79.60;;;;;;5069912;28;19955;-70
2022/08/24 13:50:08;;;;;;;;;;;31.80;82.10;;;;;;5053284;28;19940;-70
2022/08/24 13:52:37;;;;;;;;;;;31.40;76.30;;;;;;5071202;28;20274;-70
2022/08/24 13:55:21;;;;;;;;;;;31.30;81.50;;;;;;5087853;28;20023;-70
2022/08/24 13:57:51;;;;;;;;;;;31.20;81.70;;;;;;5073752;28;20324;-70
2022/08/24 14:00:35;;;;;;;;;;;31.20;77.60;;;;;;5090971;28;19924;-70
2022/08/24 14:03:10;;;;;;;;;;;31.30;83.50;;;;;;5074073;28;19924;-70
2022/08/24 14:05:53;;;;;;;;;;;31.40;79.50;;;;;;5074240;28;19925;-70
2022/08/24 14:08:18;;;;;;;;;;;31.60;82.40;;;;;;5089714;28;20377;-70
2022/08/24 14:10:54;;;;;;;;;;;31.70;75.90;;;;;;5089913;28;19989;-70
2022/08/24 14:13:26;;;;;;;;;;;31.90;77.50;;;;;;5072762;28;19924;-70
2022/08/24 14:17:50;;;;;;;;;;;31.90;76.80;;;;;;5090072;28;20217;-70
2022/08/24 14:18:56;;;;;;;;;;;32.10;75.80;;;;;;5074414;28;19924;-70
2022/08/24 14:21:32;;;;;;;;;;;32.20;76.30;;;;;;5089668;28;20413;-70
2022/08/24 14:24:02;;;;;;;;;;;32.40;81.60;;;;;;5073961;28;19920;-70
2022/08/24 14:26:35;;;;;;;;;;;32.50;82.00;;;;;;5073806;28;19924;-70
2022/08/24 14:29:19;;;;;;;;;;;32.60;81.50;;;;;;5089745;28;20051;-70
2022/08/24 14:31:44;;;;;;;;;;;32.50;80.80;;;;;;5073902;28;19970;-70
2022/08/24 14:34:30;;;;;;;;;;;32.20;80.10;;;;;;5073723;28;20361;-69
2022/08/24 14:36:56;;;;;;;;;;;31.90;81.00;;;;;;5073970;28;19920;-70
2022/08/24 14:39:40;;;;;;;;;;;31.90;81.10;;;;;;5074062;28;19932;-70
2022/08/24 14:42:31;;;;;;;;;;;32.00;79.90;;;;;;5073101;28;19927;-70
2022/08/24 14:45:06;;;;;;;;;;;32.20;80.80;;;;;;5073991;28;19928;-70
2022/08/24 14:47:50;;;;;;;;;;;32.20;82.40;;;;;;5073360;28;20354;-70